Time;durP1;ratioP1;P1;durP2;ratioP2;P2;SDS_P1;SDS_P2;PMS_P1;PMS_P2;Temp;Humidity;BMP_temperature;BMP_pressure;BME280_temperature;BME280_humidity;BME280_pressure;Samples;Min_cycle;Max_cycle;Signal;HPM_P1;HPM_P2
2022/03/08 00:00:44;;;;;;;10.45;5.95;;;;;;;-1.01;76.49;99366.28;5031262;28;20068;-64
2022/03/08 00:03:30;;;;;;;8.52;4.70;;;;;;;-1.00;75.69;99365.41;5032240;28;20068;-63
2022/03/08 00:06:16;;;;;;;12.90;5.93;;;;;;;-1.05;76.31;99357.75;5017127;28;20056;-64
2022/03/08 00:09:02;;;;;;;9.43;4.68;;;;;;;-0.98;75.26;99362.84;5032326;28;20065;-63
2022/03/08 00:11:48;;;;;;;11.05;4.75;;;;;;;-0.94;74.79;99360.19;5022599;28;20056;-65
2022/03/08 00:14:34;;;;;;;9.23;5.30;;;;;;;-1.00;75.57;99360.28;5037659;28;20052;-65
2022/03/08 00:17:19;;;;;;;9.80;5.70;;;;;;;-0.90;74.31;99366.16;5031825;28;20052;-65
2022/03/08 00:20:08;;;;;;;7.40;4.38;;;;;;;-0.75;73.57;99362.53;5032210;28;20056;-64
2022/03/08 00:22:54;;;;;;;8.77;4.45;;;;;;;-0.90;73.69;99361.84;5031699;28;20056;-62
2022/03/08 00:25:40;;;;;;;7.57;4.63;;;;;;;-1.12;75.51;99364.69;5031648;28;20064;-63
2022/03/08 00:28:27;;;;;;;9.00;5.00;;;;;;;-1.00;74.72;99368.81;5032034;28;20060;-63
2022/03/08 00:31:12;;;;;;;11.45;4.65;;;;;;;-0.82;72.87;99363.50;5030974;28;20057;-63
2022/03/08 00:34:00;;;;;;;9.60;5.40;;;;;;;-0.89;74.05;99370.44;5022234;28;20061;-66
2022/03/08 00:36:46;;;;;;;10.43;4.90;;;;;;;-1.06;74.90;99379.19;5002686;28;20065;-63
2022/03/08 00:39:31;;;;;;;12.02;6.10;;;;;;;-1.00;74.46;99371.41;5011743;28;20509;-64
2022/03/08 00:42:20;;;;;;;10.00;4.85;;;;;;;-0.94;73.70;99374.78;5010913;28;20089;-65
2022/03/08 00:45:07;;;;;;;9.25;4.45;;;;;;;-0.79;73.30;99384.03;5011763;28;20392;-64
2022/03/08 00:47:53;;;;;;;9.00;5.38;;;;;;;-0.82;73.27;99392.66;4996823;28;20065;-64
2022/03/08 00:50:39;;;;;;;8.05;4.05;;;;;;;-0.87;73.15;99391.88;5011307;28;20774;-64
2022/03/08 00:53:25;;;;;;;11.25;5.82;;;;;;;-1.03;74.18;99383.47;5011842;28;20065;-63
2022/03/08 00:56:12;;;;;;;13.65;6.15;;;;;;;-1.65;77.98;99379.78;5010083;28;20065;-63
2022/03/08 00:58:58;;;;;;;11.23;5.60;;;;;;;-1.81;78.75;99381.63;4997202;28;20394;-63
2022/03/08 01:01:44;;;;;;;8.77;5.80;;;;;;;-1.79;78.52;99372.16;4996675;28;20053;-63
2022/03/08 01:04:29;;;;;;;10.48;5.22;;;;;;;-1.67;77.50;99378.94;5011775;28;20069;-63
2022/03/08 01:07:16;;;;;;;15.48;5.63;;;;;;;-1.61;76.83;99364.31;5011298;28;20076;-63
2022/03/08 01:10:06;;;;;;;16.17;6.93;;;;;;;-1.90;78.92;99360.28;4997038;28;20062;-63
2022/03/08 01:12:53;;;;;;;10.80;5.55;;;;;;;-2.02;79.42;99361.22;5011282;28;20064;-62
2022/03/08 01:15:39;;;;;;;11.07;5.75;;;;;;;-2.16;80.72;99345.03;5011435;28;20079;-64
2022/03/08 01:18:25;;;;;;;8.82;5.03;;;;;;;-2.08;80.29;99348.41;4996691;28;20421;-64
2022/03/08 01:21:14;;;;;;;10.60;5.40;;;;;;;-2.05;79.62;99344.97;4996335;28;20085;-62
2022/03/08 01:24:00;;;;;;;11.07;6.07;;;;;;;-1.88;78.68;99347.41;4996604;28;20065;-62
2022/03/08 01:26:46;;;;;;;9.77;5.28;;;;;;;-1.89;78.49;99349.13;5011024;28;20060;-63
2022/03/08 01:29:32;;;;;;;12.32;6.60;;;;;;;-1.70;77.56;99353.25;5010207;28;20064;-63
2022/03/08 01:32:18;;;;;;;10.05;5.85;;;;;;;-1.94;79.09;99352.59;5011020;28;20623;-64
2022/03/08 01:35:05;;;;;;;11.32;5.88;;;;;;;-1.84;78.70;99341.38;5010936;28;20053;-63
2022/03/08 01:37:51;;;;;;;9.00;4.18;;;;;;;-1.80;77.42;99344.78;5010051;28;20073;-63
2022/03/08 01:40:38;;;;;;;13.07;5.22;;;;;;;-1.62;75.61;99348.91;4996441;28;20086;-64
2022/03/08 01:43:24;;;;;;;10.20;4.60;;;;;;;-1.42;73.93;99348.69;5010888;28;20101;-64
2022/03/08 01:46:09;;;;;;;8.27;4.50;;;;;;;-1.41;73.90;99340.13;5002035;28;20045;-65
2022/03/08 01:48:55;;;;;;;9.13;4.75;;;;;;;-1.37;73.36;99344.38;4995991;28;20049;-64
2022/03/08 01:51:43;;;;;;;10.13;5.35;;;;;;;-1.43;73.26;99344.44;4996398;28;20133;-63
2022/03/08 01:54:29;;;;;;;10.70;4.60;;;;;;;-1.64;73.53;99343.78;5010700;28;20057;-64
2022/03/08 01:57:14;;;;;;;9.50;5.05;;;;;;;-1.69;74.20;99348.09;5011152;28;20445;-63
2022/03/08 02:00:01;;;;;;;10.10;4.80;;;;;;;-1.70;74.26;99338.69;5010799;28;20063;-64
2022/03/08 02:02:46;;;;;;;9.93;5.88;;;;;;;-1.56;74.03;99336.00;5010811;28;20052;-62
2022/03/08 02:05:33;;;;;;;6.95;4.28;;;;;;;-1.52;74.28;99336.81;4996272;28;20069;-63
2022/03/08 02:08:18;;;;;;;12.57;5.93;;;;;;;-1.66;75.65;99330.09;5004960;28;20448;-63
2022/03/08 02:11:04;;;;;;;17.63;8.35;;;;;;;-1.81;77.11;99325.09;5014807;28;20057;-62
2022/03/08 02:13:50;;;;;;;12.82;6.22;;;;;;;-1.98;78.40;99323.53;5016674;28;20126;-63
2022/03/08 02:16:36;;;;;;;13.52;7.80;;;;;;;-2.15;79.76;99328.78;5014204;28;20508;-63
2022/03/08 02:19:21;;;;;;;15.18;7.35;;;;;;;-2.24;80.49;99327.97;5014738;28;20069;-63
2022/03/08 02:22:08;;;;;;;12.60;6.72;;;;;;;-2.16;79.96;99330.50;5014469;28;20418;-62
2022/03/08 02:24:53;;;;;;;14.98;7.05;;;;;;;-2.02;79.46;99332.97;5013949;28;20065;-64
2022/03/08 02:27:44;;;;;;;13.57;6.45;;;;;;;-2.03;79.38;99327.84;5035798;28;20073;-63
2022/03/08 02:30:30;;;;;;;15.13;8.82;;;;;;;-2.23;80.37;99327.13;5035226;28;20120;-64
2022/03/08 02:33:16;;;;;;;12.32;7.00;;;;;;;-2.25;80.61;99323.72;5033898;28;20053;-63
2022/03/08 02:36:01;;;;;;;22.35;8.20;;;;;;;-2.22;80.12;99325.41;5039887;28;20350;-63
2022/03/08 02:38:47;;;;;;;15.98;6.97;;;;;;;-2.05;79.39;99319.28;4993347;28;20061;-63
2022/03/08 02:41:34;;;;;;;11.77;6.53;;;;;;;-2.09;79.52;99323.63;5013873;28;20405;-63
2022/03/08 02:44:19;;;;;;;19.92;8.43;;;;;;;-2.03;79.27;99325.25;5013732;28;20077;-62
2022/03/08 02:47:05;;;;;;;14.00;6.13;;;;;;;-1.84;77.79;99327.69;5013591;28;20073;-63
2022/03/08 02:49:51;;;;;;;12.68;7.38;;;;;;;-1.74;77.46;99325.03;5015668;28;20061;-63
2022/03/08 02:52:39;;;;;;;12.15;5.97;;;;;;;-1.56;76.23;99325.72;5011191;28;20057;-63
2022/03/08 02:55:28;;;;;;;14.38;7.13;;;;;;;-1.52;75.90;99322.22;5020007;28;20064;-62
2022/03/08 02:58:14;;;;;;;16.27;7.85;;;;;;;-1.62;77.42;99323.22;5033397;28;20116;-62
2022/03/08 03:01:00;;;;;;;15.32;6.78;;;;;;;-1.64;77.20;99322.38;5018416;28;20107;-63
2022/03/08 03:03:46;;;;;;;12.85;7.00;;;;;;;-1.44;76.36;99326.47;5033481;28;20056;-63
2022/03/08 03:06:34;;;;;;;13.95;5.07;;;;;;;-1.32;75.02;99330.63;5032047;28;20071;-64
2022/03/08 03:09:21;;;;;;;13.70;6.32;;;;;;;-1.68;77.02;99328.41;5018783;28;20056;-64
2022/03/08 03:12:07;;;;;;;14.82;7.93;;;;;;;-1.57;76.77;99328.28;5029338;28;20056;-63
2022/03/08 03:14:53;;;;;;;14.38;7.05;;;;;;;-1.42;75.67;99333.28;4998621;28;20053;-63
2022/03/08 03:17:40;;;;;;;15.38;7.45;;;;;;;-1.47;76.25;99332.50;5012811;28;20080;-63
2022/03/08 03:20:26;;;;;;;17.63;7.05;;;;;;;-1.53;76.79;99341.09;5013181;28;20057;-65
2022/03/08 03:23:12;;;;;;;14.88;6.88;;;;;;;-1.43;75.42;99334.16;4998683;28;20065;-64
2022/03/08 03:25:58;;;;;;;12.93;6.80;;;;;;;-1.29;75.54;99346.03;5025245;28;20068;-65
2022/03/08 03:28:44;;;;;;;12.80;6.30;;;;;;;-1.36;75.67;99345.22;5032583;28;20057;-63
2022/03/08 03:31:29;;;;;;;13.60;6.85;;;;;;;-1.60;77.01;99342.03;5023616;28;20060;-64
2022/03/08 03:34:15;;;;;;;15.30;7.18;;;;;;;-1.66;77.43;99344.66;5016068;28;20061;-64
2022/03/08 03:37:01;;;;;;;14.48;5.65;;;;;;;-1.54;76.72;99335.97;5032738;28;20515;-63
2022/03/08 03:39:46;;;;;;;14.23;6.90;;;;;;;-1.52;76.67;99344.53;5023442;28;20073;-63
2022/03/08 03:42:32;;;;;;;13.05;7.18;;;;;;;-1.52;76.61;99344.53;5032926;28;20077;-64
2022/03/08 03:45:18;;;;;;;13.52;6.78;;;;;;;-1.55;75.84;99340.25;5032346;28;20060;-63
2022/03/08 03:48:04;;;;;;;14.88;7.55;;;;;;;-1.63;76.88;99342.91;5013764;28;20064;-65
2022/03/08 03:50:49;;;;;;;12.25;6.47;;;;;;;-1.57;76.11;99342.00;5012594;28;20396;-63
2022/03/08 03:53:35;;;;;;;16.55;7.50;;;;;;;-1.56;76.04;99345.41;5011757;28;20053;-63
2022/03/08 03:56:21;;;;;;;18.40;7.30;;;;;;;-1.78;76.91;99336.19;5024841;28;20389;-63
2022/03/08 03:59:06;;;;;;;18.55;7.85;;;;;;;-1.85;77.45;99331.97;5032133;28;20056;-63
2022/03/08 04:01:52;;;;;;;15.88;7.70;;;;;;;-1.83;77.13;99335.38;5005928;28;20064;-62
2022/03/08 04:04:38;;;;;;;12.63;6.20;;;;;;;-1.53;75.43;99338.53;5023173;28;20065;-64
2022/03/08 04:07:23;;;;;;;15.63;7.28;;;;;;;-1.54;74.97;99338.53;5019281;28;20056;-63
2022/03/08 04:10:11;;;;;;;13.35;6.57;;;;;;;-1.61;75.27;99354.03;5023151;28;20053;-62
2022/03/08 04:12:57;;;;;;;13.90;6.45;;;;;;;-1.33;73.41;99350.34;5023510;28;20053;-63
2022/03/08 04:15:44;;;;;;;13.13;6.18;;;;;;;-1.47;73.93;99353.06;4997359;28;20168;-63
2022/03/08 04:18:30;;;;;;;17.23;7.45;;;;;;;-1.35;73.14;99352.06;5011978;28;20049;-63
2022/03/08 04:21:16;;;;;;;14.23;6.88;;;;;;;-1.61;74.20;99345.47;5019006;28;20061;-63
2022/03/08 04:24:02;;;;;;;13.95;6.38;;;;;;;-1.64;74.26;99351.50;5014495;28;20045;-64
2022/03/08 04:26:47;;;;;;;12.75;5.88;;;;;;;-1.34;72.34;99348.66;5013556;28;20061;-63
2022/03/08 04:29:33;;;;;;;13.68;6.32;;;;;;;-1.38;72.18;99347.81;5013092;28;20068;-64
2022/03/08 04:32:19;;;;;;;16.08;6.50;;;;;;;-1.39;72.28;99351.22;5012240;28;20052;-65
2022/03/08 04:35:05;;;;;;;13.77;6.82;;;;;;;-1.63;73.54;99336.91;5011996;28;20052;-66
2022/03/08 04:37:51;;;;;;;10.95;5.80;;;;;;;-1.52;72.75;99340.22;5002629;28;20406;-64
2022/03/08 04:40:36;;;;;;;12.82;5.35;;;;;;;-1.63;72.38;99339.47;5002965;28;20056;-64
2022/03/08 04:43:22;;;;;;;13.73;5.28;;;;;;;-1.81;72.92;99335.38;5011813;28;20061;-65
2022/03/08 04:46:10;;;;;;;13.55;6.95;;;;;;;-1.89;73.13;99340.56;5002648;28;20072;-64
2022/03/08 04:48:55;;;;;;;13.75;6.43;;;;;;;-2.11;74.46;99336.47;5011859;28;20401;-64
2022/03/08 04:51:41;;;;;;;12.73;5.75;;;;;;;-2.08;74.53;99340.72;5011984;28;20057;-64
2022/03/08 04:54:26;;;;;;;13.80;5.60;;;;;;;-1.89;73.39;99336.28;5010502;28;20056;-64
2022/03/08 04:57:12;;;;;;;13.35;6.20;;;;;;;-1.91;73.78;99332.84;5011397;28;20076;-64
2022/03/08 04:59:58;;;;;;;11.95;5.25;;;;;;;-2.05;74.64;99327.84;4996751;28;20057;-65
2022/03/08 05:02:45;;;;;;;10.65;5.80;;;;;;;-2.07;75.16;99321.03;5010299;28;20512;-65
2022/03/08 05:05:33;;;;;;;10.85;6.03;;;;;;;-2.01;74.93;99321.81;5010574;28;20516;-64
2022/03/08 05:08:18;;;;;;;13.00;5.60;;;;;;;-1.98;74.72;99323.53;5010172;28;20069;-64
2022/03/08 05:11:04;;;;;;;11.10;5.32;;;;;;;-1.99;74.61;99326.94;5002166;28;20389;-65
2022/03/08 05:13:49;;;;;;;9.88;4.63;;;;;;;-1.84;73.90;99327.69;5011606;28;20057;-63
2022/03/08 05:16:35;;;;;;;10.15;5.28;;;;;;;-1.64;72.69;99319.78;5026325;28;20061;-64
2022/03/08 05:19:21;;;;;;;10.73;4.72;;;;;;;-1.55;72.14;99329.97;5018298;28;20057;-64
2022/03/08 05:22:07;;;;;;;10.77;5.18;;;;;;;-1.63;72.40;99327.47;5030953;28;20055;-63
2022/03/08 05:24:52;;;;;;;12.90;5.00;;;;;;;-1.56;71.71;99335.13;5014224;28;20409;-64
2022/03/08 05:27:38;;;;;;;10.05;4.90;;;;;;;-1.66;72.85;99335.22;5011349;28;20065;-61
2022/03/08 05:30:24;;;;;;;13.48;5.10;;;;;;;-1.83;74.24;99343.09;5011602;28;20065;-69
2022/03/08 05:33:10;;;;;;;10.93;4.88;;;;;;;-1.59;72.68;99333.44;5011179;28;20061;-65
2022/03/08 05:35:57;;;;;;;12.88;5.68;;;;;;;-1.54;72.92;99330.84;5010987;28;20057;-64
2022/03/08 05:38:43;;;;;;;9.27;4.55;;;;;;;-1.53;73.80;99337.66;4996539;28;20058;-64
2022/03/08 05:41:29;;;;;;;10.85;5.15;;;;;;;-1.24;72.46;99337.38;5013782;28;20523;-65
2022/03/08 05:44:15;;;;;;;8.70;4.15;;;;;;;-1.13;72.00;99344.13;5006397;28;20061;-63
2022/03/08 05:47:00;;;;;;;11.07;4.57;;;;;;;-1.31;73.65;99335.75;5022756;28;20052;-64
2022/03/08 05:49:46;;;;;;;9.98;4.63;;;;;;;-1.03;72.84;99338.00;5020333;28;20420;-62
2022/03/08 05:52:33;;;;;;;13.07;5.03;;;;;;;-1.06;72.96;99343.19;5023856;28;20068;-64
2022/03/08 05:55:18;;;;;;;11.98;5.15;;;;;;;-0.94;72.58;99346.47;5032088;28;20064;-65
2022/03/08 05:58:04;;;;;;;10.90;4.65;;;;;;;-0.66;71.37;99348.72;5041256;28;20117;-64
2022/03/08 06:00:50;;;;;;;11.15;4.78;;;;;;;-0.76;71.78;99353.97;5035219;28;20072;-64
2022/03/08 06:03:36;;;;;;;9.95;5.05;;;;;;;-0.62;71.13;99358.13;5011944;28;20411;-64
2022/03/08 06:06:22;;;;;;;11.73;5.15;;;;;;;-0.82;72.63;99346.34;5034603;28;20084;-63
2022/03/08 06:09:07;;;;;;;9.50;4.30;;;;;;;-0.69;72.00;99338.47;5034401;28;20053;-65
2022/03/08 06:11:53;;;;;;;12.20;5.80;;;;;;;-0.73;72.41;99341.97;5016843;28;20052;-64
2022/03/08 06:14:39;;;;;;;8.82;4.45;;;;;;;-0.51;71.29;99345.09;5033979;28;20060;-64
2022/03/08 06:17:24;;;;;;;10.85;4.45;;;;;;;-0.45;71.56;99351.84;5033447;28;20048;-62
2022/03/08 06:20:10;;;;;;;12.75;5.00;;;;;;;0.21;68.98;99357.72;5033117;28;20504;-62
2022/03/08 06:22:57;;;;;;;13.32;5.22;;;;;;;2.07;73.19;99345.44;5005584;28;20052;-58
2022/03/08 06:25:43;;;;;;;19.52;5.65;;;;;;;1.50;77.01;99353.63;5032975;28;20060;-57
2022/03/08 06:28:29;;;;;;;16.52;6.28;;;;;;;1.23;71.32;99345.56;5034659;28;20053;-59
2022/03/08 06:31:15;;;;;;;12.20;6.22;;;;;;;1.23;67.29;99349.00;5026881;28;20064;-59
2022/03/08 06:34:01;;;;;;;14.23;6.05;;;;;;;0.35;68.64;99354.94;5024867;28;20064;-59
2022/03/08 06:36:46;;;;;;;11.00;5.90;;;;;;;0.27;68.50;99354.22;5004963;28;20057;-58
2022/03/08 06:39:32;;;;;;;11.70;5.50;;;;;;;0.97;68.24;99359.84;5033403;28;20060;-58
2022/03/08 06:42:18;;;;;;;16.90;6.75;;;;;;;1.02;65.90;99364.91;5032524;28;20765;-58
2022/03/08 06:45:07;;;;;;;15.60;6.15;;;;;;;1.52;63.47;99358.75;5024670;28;20060;-58
2022/03/08 06:47:53;;;;;;;14.80;7.13;;;;;;;2.19;84.52;99365.81;5016596;28;20053;-50
2022/03/08 06:50:40;;;;;;;15.40;7.03;;;;;;;3.38;73.43;99372.22;5013607;28;20060;-52
2022/03/08 06:53:25;;;;;;;18.58;7.07;;;;;;;2.91;67.58;99368.31;5023758;28;20060;-58
2022/03/08 06:56:10;;;;;;;15.82;6.60;;;;;;;2.40;60.93;99367.94;5032738;28;20060;-58
2022/03/08 06:58:56;;;;;;;13.10;6.05;;;;;;;3.27;59.21;99372.50;5031285;28;20057;-58
2022/03/08 07:01:42;;;;;;;12.55;6.25;;;;;;;3.41;57.10;99364.38;5031974;28;20060;-58
2022/03/08 07:04:27;;;;;;;17.20;6.88;;;;;;;3.16;56.97;99367.66;5031270;28;20056;-57
2022/03/08 07:07:13;;;;;;;16.92;7.18;;;;;;;2.65;61.27;99369.88;5028003;28;20061;-58
2022/03/08 07:09:59;;;;;;;13.70;5.88;;;;;;;3.54;58.07;99370.03;5029961;28;20056;-58
2022/03/08 07:12:45;;;;;;;12.80;6.50;;;;;;;3.09;57.32;99379.91;5015875;28;20061;-59
2022/03/08 07:15:30;;;;;;;15.27;6.88;;;;;;;3.16;56.54;99385.78;5037239;28;20057;-60
2022/03/08 07:18:16;;;;;;;16.88;7.68;;;;;;;2.74;57.36;99376.56;5017274;28;20486;-59
2022/03/08 07:21:03;;;;;;;17.38;7.35;;;;;;;2.38;59.38;99375.72;5029887;28;20060;-59
2022/03/08 07:23:50;;;;;;;14.98;6.82;;;;;;;3.25;56.65;99376.91;5016250;28;20060;-60
2022/03/08 07:26:36;;;;;;;14.95;6.18;;;;;;;3.53;56.02;99376.94;5032333;28;20056;-58
2022/03/08 07:29:21;;;;;;;14.45;6.63;;;;;;;3.85;54.86;99379.47;5032935;28;20056;-58
2022/03/08 07:32:07;;;;;;;11.40;6.05;;;;;;;4.25;54.60;99379.94;5030889;28;20056;-59
2022/03/08 07:34:53;;;;;;;16.00;6.88;;;;;;;4.07;53.80;99383.97;5031961;28;20053;-59
2022/03/08 07:37:39;;;;;;;14.38;6.10;;;;;;;4.32;53.70;99380.59;5017452;28;20060;-59
2022/03/08 07:40:25;;;;;;;14.48;6.13;;;;;;;5.56;56.34;99379.75;5032610;28;20072;-65
2022/03/08 07:43:11;;;;;;;12.93;5.60;;;;;;;5.57;53.34;99381.44;5031838;28;20064;-66
2022/03/08 07:45:56;;;;;;;13.77;6.07;;;;;;;5.45;51.03;99389.69;5010631;28;20069;-69
2022/03/08 07:48:43;;;;;;;13.23;5.90;;;;;;;5.60;50.52;99377.88;5012961;28;20064;-64
2022/03/08 07:51:29;;;;;;;13.27;6.47;;;;;;;5.12;51.29;99385.69;5025342;28;20398;-67
2022/03/08 07:54:14;;;;;;;13.95;6.90;;;;;;;5.20;51.65;99386.25;5017201;28;20052;-66
2022/03/08 07:57:00;;;;;;;11.90;5.93;;;;;;;5.88;49.60;99387.19;5029828;28;20385;-65
2022/03/08 07:59:46;;;;;;;11.45;5.38;;;;;;;6.59;47.98;99387.88;5029553;28;20060;-69
2022/03/08 08:02:32;;;;;;;11.52;6.63;;;;;;;6.27;48.50;99380.47;5029473;28;20064;-68
2022/03/08 08:05:20;;;;;;;13.05;6.03;;;;;;;6.84;47.87;99379.03;5021239;28;20072;-67
2022/03/08 08:08:07;;;;;;;11.13;6.22;;;;;;;7.35;45.38;99375.91;5030586;28;20045;-66
2022/03/08 08:10:53;;;;;;;11.70;6.63;;;;;;;7.37;45.61;99376.69;5032597;28;20056;-61
2022/03/08 08:13:39;;;;;;;13.00;6.38;;;;;;;7.61;45.29;99379.09;5016315;28;20048;-66
2022/03/08 08:16:25;;;;;;;13.50;6.60;;;;;;;8.12;44.66;99373.22;5028050;28;20048;-64
2022/03/08 08:19:11;;;;;;;13.30;7.03;;;;;;;8.36;43.03;99372.94;5028090;28;20056;-64
2022/03/08 08:21:57;;;;;;;16.25;6.78;;;;;;;8.33;43.45;99378.31;5017246;28;20052;-67
2022/03/08 08:24:44;;;;;;;13.25;6.85;;;;;;;8.51;42.77;99389.63;5015537;28;20064;-66
2022/03/08 08:27:30;;;;;;;16.20;7.55;;;;;;;8.13;44.19;99380.97;5016556;28;20057;-66
2022/03/08 08:30:15;;;;;;;12.23;6.43;;;;;;;8.75;42.17;99384.94;5033113;28;20048;-63
2022/03/08 08:33:02;;;;;;;14.48;6.82;;;;;;;8.67;43.22;99376.66;5002254;28;20064;-62
2022/03/08 08:35:47;;;;;;;13.73;7.30;;;;;;;8.94;41.67;99385.78;5001973;28;20053;-66
2022/03/08 08:38:33;;;;;;;15.98;7.25;;;;;;;8.60;42.50;99388.34;5016058;28;20503;-69
2022/03/08 08:41:19;;;;;;;15.30;7.05;;;;;;;8.71;41.67;99386.03;5016709;28;20052;-71
2022/03/08 08:44:06;;;;;;;12.45;6.72;;;;;;;8.48;41.85;99392.38;5035503;28;20056;-68
2022/03/08 08:46:51;;;;;;;12.60;6.47;;;;;;;7.86;44.12;99393.59;5029724;28;20373;-67
2022/03/08 08:49:38;;;;;;;14.13;6.57;;;;;;;7.87;43.46;99393.53;5019634;28;20060;-70
2022/03/08 08:52:25;;;;;;;12.60;7.18;;;;;;;8.91;41.81;99399.81;5030347;28;20064;-67
2022/03/08 08:55:10;;;;;;;14.55;7.38;;;;;;;8.75;42.31;99395.41;5030567;28;20052;-68
2022/03/08 08:57:56;;;;;;;14.05;7.10;;;;;;;8.90;41.10;99399.91;5029917;28;20060;-65
2022/03/08 09:00:42;;;;;;;13.45;6.82;;;;;;;10.27;38.87;99389.94;5016431;28;20052;-67
2022/03/08 09:03:28;;;;;;;13.65;6.57;;;;;;;9.81;39.60;99377.69;5030936;28;20056;-68
2022/03/08 09:06:13;;;;;;;15.38;6.10;;;;;;;9.44;39.94;99384.00;5033461;28;20048;-62
2022/03/08 09:09:00;;;;;;;12.15;6.65;;;;;;;10.06;39.31;99377.16;5022200;28;20412;-63
2022/03/08 09:11:46;;;;;;;12.93;6.65;;;;;;;10.09;39.94;99382.22;5031598;28;20064;-65
2022/03/08 09:14:32;;;;;;;16.73;6.38;;;;;;;10.67;38.11;99373.72;5029137;28;20064;-66
2022/03/08 09:17:17;;;;;;;12.18;6.55;;;;;;;10.50;38.07;99372.09;5037182;28;20068;-67
2022/03/08 09:20:06;;;;;;;14.45;6.80;;;;;;;10.12;38.98;99364.66;5035651;28;20072;-64
2022/03/08 09:22:53;;;;;;;14.68;7.05;;;;;;;10.09;38.32;99376.97;5037844;28;20507;-67
2022/03/08 09:25:39;;;;;;;12.90;6.75;;;;;;;10.25;38.82;99375.25;5024917;28;20598;-64
2022/03/08 09:28:25;;;;;;;10.70;6.25;;;;;;;10.85;37.23;99370.94;5037100;28;20121;-64
2022/03/08 09:31:10;;;;;;;14.63;6.03;;;;;;;10.06;38.31;99365.84;5037440;28;20052;-65
2022/03/08 09:33:56;;;;;;;9.80;5.57;;;;;;;9.57;39.33;99365.03;5022707;28;20056;-66
2022/03/08 09:36:42;;;;;;;13.43;6.13;;;;;;;9.73;38.71;99378.09;5037006;28;20064;-65
2022/03/08 09:39:27;;;;;;;9.18;5.35;;;;;;;9.79;38.64;99369.91;5035723;28;20056;-65
2022/03/08 09:42:14;;;;;;;11.23;5.10;;;;;;;10.33;37.69;99367.81;5035773;28;20512;-65
2022/03/08 09:45:00;;;;;;;14.18;6.32;;;;;;;11.19;36.06;99366.25;5035790;28;20057;-66
2022/03/08 09:47:47;;;;;;;13.90;6.90;;;;;;;10.80;35.94;99357.25;5019399;28;20068;-66
2022/03/08 09:50:33;;;;;;;11.55;5.70;;;;;;;10.55;37.03;99361.34;5020213;28;20045;-65
2022/03/08 09:53:19;;;;;;;10.18;5.85;;;;;;;11.42;35.38;99364.00;5016001;28;20057;-65
2022/03/08 09:56:05;;;;;;;13.23;6.60;;;;;;;10.77;36.27;99367.94;5027295;28;20417;-64
2022/03/08 09:58:52;;;;;;;15.63;6.82;;;;;;;10.65;36.86;99359.00;5037143;28;20053;-65
2022/03/08 10:01:37;;;;;;;14.70;6.63;;;;;;;11.38;35.41;99361.63;5037609;28;20068;-66
2022/03/08 10:04:23;;;;;;;11.68;5.60;;;;;;;11.93;34.41;99352.03;5043182;28;20499;-65
2022/03/08 10:07:11;;;;;;;10.88;6.05;;;;;;;12.26;33.51;99354.34;5037057;28;20092;-65
2022/03/08 10:09:58;;;;;;;10.80;5.90;;;;;;;13.17;32.73;99354.41;5036979;28;20068;-64
2022/03/08 10:12:55;;;;;;;11.45;5.63;;;;;;;11.85;33.64;99343.78;5043269;28;20060;-64
2022/03/08 10:15:41;;;;;;;10.77;5.22;;;;;;;12.47;31.99;99348.63;5037014;28;20056;-65
2022/03/08 10:18:47;;;;;;;8.52;4.78;;;;;;;12.42;31.56;99347.13;5036861;28;20060;-65
2022/03/08 10:21:36;;;;;;;12.70;4.82;;;;;;;12.44;31.16;99347.03;5035994;28;20056;-65
2022/03/08 10:24:25;;;;;;;15.02;5.10;;;;;;;12.12;31.53;99355.25;5036122;28;20048;-64
2022/03/08 10:27:16;;;;;;;9.10;4.70;;;;;;;13.00;31.05;99350.31;5033688;28;20539;-64
2022/03/08 10:30:04;;;;;;;8.93;4.82;;;;;;;12.60;31.44;99352.09;5035245;28;20052;-65
2022/03/08 10:32:53;;;;;;;9.88;4.35;;;;;;;12.90;31.17;99352.72;5033816;28;20053;-66
2022/03/08 10:35:41;;;;;;;9.00;4.72;;;;;;;12.77;30.62;99355.34;5033824;28;20057;-66
2022/03/08 10:38:26;;;;;;;7.05;4.20;;;;;;;13.17;30.64;99349.97;5032699;28;20519;-66
2022/03/08 10:41:19;;;;;;;7.85;4.25;;;;;;;12.42;31.42;99355.00;5018828;28;20120;-65
2022/03/08 10:44:05;;;;;;;7.82;4.53;;;;;;;11.67;32.49;99353.72;5024449;28;20080;-65
2022/03/08 10:47:11;;;;;;;10.10;5.28;;;;;;;12.58;31.18;99356.63;5033722;28;20083;-65
2022/03/08 10:50:02;;;;;;;6.47;3.63;;;;;;;12.35;30.93;99345.88;5033764;28;20104;-64
2022/03/08 10:52:51;;;;;;;6.45;3.55;;;;;;;11.94;30.97;99366.00;5033216;28;20048;-64
2022/03/08 10:55:48;;;;;;;5.82;3.30;;;;;;;12.10;30.50;99351.88;5033074;28;20060;-65
2022/03/08 10:58:46;;;;;;;5.10;2.75;;;;;;;12.13;29.61;99347.28;5033468;28;20496;-64
2022/03/08 11:01:32;;;;;;;5.40;3.25;;;;;;;10.93;31.50;99341.63;5032411;28;20052;-67
2022/03/08 11:04:21;;;;;;;8.07;3.92;;;;;;;10.75;32.67;99356.69;5018393;28;20064;-69
2022/03/08 11:07:07;;;;;;;6.13;3.35;;;;;;;11.39;31.54;99355.47;5033120;28;20056;-68
2022/03/08 11:09:53;;;;;;;7.30;2.75;;;;;;;12.11;30.19;99346.53;5018286;28;20056;-66
2022/03/08 11:12:40;;;;;;;6.57;3.03;;;;;;;12.49;29.77;99358.06;5033599;28;20088;-68
2022/03/08 11:15:28;;;;;;;5.28;3.10;;;;;;;12.47;29.01;99356.50;5032367;28;20057;-66
2022/03/08 11:18:16;;;;;;;5.45;2.60;;;;;;;12.25;28.55;99350.03;5033015;28;20056;-67
2022/03/08 11:21:01;;;;;;;5.45;2.97;;;;;;;12.73;28.39;99351.28;5032355;28;20516;-68
2022/03/08 11:23:48;;;;;;;5.53;2.45;;;;;;;13.50;26.96;99350.31;5032199;28;20056;-70
2022/03/08 11:26:34;;;;;;;5.20;3.03;;;;;;;13.34;27.86;99347.94;5032365;28;20060;-67
2022/03/08 11:29:20;;;;;;;5.05;2.67;;;;;;;13.69;27.52;99332.38;5024004;28;20405;-66
2022/03/08 11:32:11;;;;;;;5.72;3.28;;;;;;;14.53;26.07;99339.38;5032910;28;20075;-64
2022/03/08 11:35:10;;;;;;;5.43;3.13;;;;;;;14.20;27.55;99346.25;5032766;28;20386;-70
2022/03/08 11:37:58;;;;;;;5.70;2.70;;;;;;;13.51;30.52;99319.59;5032616;28;20393;-68
2022/03/08 11:40:58;;;;;;;5.82;3.08;;;;;;;13.47;28.85;99332.09;5032790;28;20061;-70
2022/03/08 11:43:46;;;;;;;6.63;3.28;;;;;;;12.88;27.44;99336.19;5023700;28;20057;-61
2022/03/08 11:46:32;;;;;;;7.18;3.70;;;;;;;14.48;25.82;99329.19;5031528;28;20057;-60
2022/03/08 11:49:41;;;;;;;6.60;3.30;;;;;;;13.18;28.70;99325.34;5032711;28;20056;-60
2022/03/08 11:52:31;;;;;;;7.07;3.63;;;;;;;12.42;29.26;99315.59;5031442;28;20143;-61
2022/03/08 11:55:25;;;;;;;5.72;3.53;;;;;;;12.35;28.59;99313.50;5012593;28;20100;-59
2022/03/08 11:58:13;;;;;;;5.13;2.60;;;;;;;12.96;32.51;99312.84;5021136;28;20053;-61
2022/03/08 12:00:59;;;;;;;7.32;3.65;;;;;;;13.48;27.62;99309.28;5031666;28;20056;-59
2022/03/08 12:03:46;;;;;;;8.32;3.88;;;;;;;13.25;29.86;99312.56;5026748;28;20077;-60
2022/03/08 12:06:35;;;;;;;7.13;3.78;;;;;;;13.37;28.33;99305.59;5017094;28;20058;-58
2022/03/08 12:09:22;;;;;;;8.10;3.83;;;;;;;12.03;30.74;99305.00;5036721;28;20064;-59
2022/03/08 12:12:07;;;;;;;8.23;4.07;;;;;;;11.98;28.98;99312.34;5032145;28;20056;-61
2022/03/08 12:15:02;;;;;;;8.20;4.28;;;;;;;12.89;28.34;99303.72;5031794;28;20053;-60
2022/03/08 12:18:17;;;;;;;6.22;3.88;;;;;;;13.79;27.30;99305.25;5031739;28;20052;-59
2022/03/08 12:21:21;;;;;;;5.57;3.40;;;;;;;14.44;26.36;99311.94;5022751;28;20056;-61
2022/03/08 12:24:18;;;;;;;10.88;3.78;;;;;;;12.77;28.30;99302.78;5032129;28;20056;-61
2022/03/08 12:27:04;;;;;;;6.72;3.40;;;;;;;13.21;27.31;99299.75;5031240;28;20060;-60
2022/03/08 12:29:55;;;;;;;5.88;3.55;;;;;;;13.70;27.53;99294.56;5031854;28;20060;-59
2022/03/08 12:32:44;;;;;;;5.35;2.97;;;;;;;13.68;28.55;99302.56;5032033;28;20056;-59
2022/03/08 12:35:30;;;;;;;9.45;3.63;;;;;;;13.90;28.33;99288.69;5031708;28;20060;-61
2022/03/08 12:38:17;;;;;;;8.80;3.60;;;;;;;12.73;28.06;99289.00;5030385;28;20076;-61
2022/03/08 12:41:03;;;;;;;7.18;3.08;;;;;;;13.30;27.37;99285.97;5031728;28;20080;-60
2022/03/08 12:43:57;;;;;;;5.90;3.28;;;;;;;14.12;26.64;99273.88;5031556;28;20496;-60
2022/03/08 12:46:43;;;;;;;12.15;3.50;;;;;;;14.07;25.30;99270.75;5024018;28;20045;-59
2022/03/08 12:49:29;;;;;;;8.57;3.67;;;;;;;13.94;25.94;99272.66;5011425;28;20065;-59
2022/03/08 12:52:18;;;;;;;7.22;2.70;;;;;;;13.58;27.06;99268.19;5011389;28;20053;-61
2022/03/08 12:55:09;;;;;;;8.90;3.22;;;;;;;13.61;27.35;99261.88;5029653;28;20072;-59
2022/03/08 12:57:57;;;;;;;6.85;3.45;;;;;;;14.33;28.40;99259.22;5019560;28;20392;-60
2022/03/08 13:00:55;;;;;;;5.93;3.63;;;;;;;12.90;27.48;99258.06;5031267;28;20053;-61